createdAt,value
2022-11-16T00:00:06.646Z,8.03
2022-11-16T00:02:37.078Z,8.03
2022-11-16T00:05:06.186Z,8.02
2022-11-16T00:07:35.090Z,8.04
2022-11-16T00:10:03.765Z,8.03
2022-11-16T00:12:32.370Z,8.04
2022-11-16T00:15:01.133Z,8.02
2022-11-16T00:17:29.840Z,8.01
2022-11-16T00:20:00.262Z,7.99
2022-11-16T00:22:29.082Z,7.99
2022-11-16T00:24:57.836Z,7.99
2022-11-16T00:27:26.542Z,8.02
2022-11-16T00:29:55.103Z,8.02
2022-11-16T00:32:24.127Z,7.96
2022-11-16T00:34:52.692Z,7.95
2022-11-16T00:37:22.988Z,7.97
2022-11-16T00:39:51.738Z,7.95
2022-11-16T00:42:20.293Z,7.95
2022-11-16T00:44:48.898Z,7.93
2022-11-16T00:47:17.501Z,7.94
2022-11-16T00:49:46.279Z,7.96
2022-11-16T00:52:14.983Z,7.97
2022-11-16T00:54:45.005Z,7.97
2022-11-16T00:57:13.642Z,7.98
2022-11-16T00:59:42.283Z,7.97
2022-11-16T01:02:16.023Z,7.98
2022-11-16T01:04:44.780Z,7.96
2022-11-16T01:07:14.041Z,7.98
2022-11-16T01:09:42.832Z,7.96
2022-11-16T01:12:13.206Z,7.94
2022-11-16T01:14:43.223Z,7.96
2022-11-16T01:17:12.503Z,7.95
2022-11-16T01:19:41.742Z,7.93
2022-11-16T01:22:10.536Z,7.93
2022-11-16T01:24:39.190Z,7.90
2022-11-16T01:27:07.903Z,7.79
2022-11-16T01:29:38.028Z,7.80
2022-11-16T01:32:08.924Z,7.81
2022-11-16T01:34:37.755Z,7.80
2022-11-16T01:37:06.471Z,7.83
2022-11-16T01:39:35.293Z,7.82
2022-11-16T01:42:04.038Z,7.87
2022-11-16T01:45:03.311Z,7.89
2022-11-16T01:47:32.618Z,7.91
2022-11-16T01:50:06.224Z,7.91
2022-11-16T01:52:37.015Z,7.93
2022-11-16T01:55:06.397Z,7.93
2022-11-16T01:57:42.109Z,7.96
2022-11-16T02:00:14.686Z,7.96
2022-11-16T02:02:43.826Z,7.98
2022-11-16T02:05:14.797Z,8.00
2022-11-16T02:08:24.182Z,8.02
2022-11-16T02:11:08.280Z,8.03
2022-11-16T02:13:44.180Z,8.04
2022-11-16T02:16:25.801Z,8.03
2022-11-16T02:19:03.267Z,8.05
2022-11-16T02:21:42.758Z,8.08
2022-11-16T02:24:45.000Z,8.09
2022-11-16T02:28:03.915Z,8.11
2022-11-16T02:30:34.621Z,8.10
2022-11-16T02:33:09.224Z,8.11
2022-11-16T02:35:43.479Z,8.10
2022-11-16T02:38:15.505Z,8.11
2022-11-16T02:40:49.207Z,8.13
2022-11-16T02:43:26.676Z,8.13
2022-11-16T02:46:00.708Z,8.14
2022-11-16T02:48:34.442Z,8.15
2022-11-16T02:51:04.512Z,8.13
2022-11-16T02:53:35.356Z,8.17
2022-11-16T02:56:03.758Z,8.15
2022-11-16T02:58:32.459Z,8.16
2022-11-16T03:01:07.992Z,8.14
2022-11-16T03:03:43.114Z,8.16
2022-11-16T03:06:16.464Z,8.18
2022-11-16T03:08:49.377Z,8.17
2022-11-16T03:11:35.468Z,8.18
2022-11-16T03:14:07.611Z,8.19
2022-11-16T03:16:42.368Z,8.17
2022-11-16T03:19:14.658Z,8.18
2022-11-16T03:21:48.975Z,8.17
2022-11-16T03:24:17.795Z,8.17
2022-11-16T03:26:52.087Z,8.16
2022-11-16T03:29:27.975Z,8.15
2022-11-16T03:32:03.174Z,8.13
2022-11-16T03:34:36.798Z,8.12
2022-11-16T03:37:07.526Z,8.04
2022-11-16T03:39:40.032Z,8.01
2022-11-16T03:42:13.771Z,7.96
2022-11-16T03:44:43.591Z,7.93
2022-11-16T03:47:13.828Z,7.91
2022-11-16T03:49:46.188Z,7.86
2022-11-16T03:52:15.890Z,7.82
2022-11-16T03:54:44.335Z,7.78
2022-11-16T03:57:15.872Z,7.74
2022-11-16T03:59:44.466Z,7.61
2022-11-16T04:02:15.331Z,7.59
2022-11-16T04:05:01.021Z,7.52
2022-11-16T04:07:46.531Z,7.46
2022-11-16T04:10:33.171Z,7.42
2022-11-16T04:13:20.386Z,7.37
2022-11-16T04:16:05.879Z,7.35
2022-11-16T04:18:53.208Z,7.32
2022-11-16T04:21:44.379Z,7.34
2022-11-16T04:24:16.510Z,7.35
2022-11-16T04:27:04.538Z,7.31
2022-11-16T04:29:33.831Z,7.28
2022-11-16T04:32:19.378Z,7.25
2022-11-16T04:35:06.285Z,7.16
2022-11-16T04:37:52.908Z,7.19
2022-11-16T04:40:22.773Z,7.18
2022-11-16T04:42:54.885Z,7.14
2022-11-16T04:45:41.377Z,7.14
2022-11-16T04:48:10.274Z,7.13
2022-11-16T04:50:40.969Z,7.07
2022-11-16T04:53:09.874Z,7.11
2022-11-16T04:55:38.269Z,7.13
2022-11-16T04:58:07.021Z,7.11
2022-11-16T05:00:35.529Z,7.10
2022-11-16T05:03:05.198Z,7.11
2022-11-16T05:05:33.736Z,7.08
2022-11-16T05:08:03.632Z,7.06
2022-11-16T05:10:32.168Z,7.03
2022-11-16T05:13:00.546Z,7.05
2022-11-16T05:15:28.909Z,7.05
2022-11-16T05:17:58.443Z,7.06
2022-11-16T05:20:43.981Z,7.04
2022-11-16T05:23:27.511Z,7.03
2022-11-16T05:25:55.833Z,7.04
2022-11-16T05:28:24.212Z,7.04
2022-11-16T05:30:52.693Z,6.99
2022-11-16T05:33:21.063Z,6.83
2022-11-16T05:35:51.944Z,6.92
2022-11-16T05:38:21.734Z,6.88
2022-11-16T05:40:50.158Z,6.89
2022-11-16T05:43:18.568Z,6.85
2022-11-16T05:45:46.955Z,6.88
2022-11-16T05:48:15.321Z,6.86
2022-11-16T05:50:43.665Z,6.86
2022-11-16T05:53:12.038Z,6.79
2022-11-16T05:55:41.795Z,6.81
2022-11-16T05:58:10.238Z,6.80
2022-11-16T06:00:38.632Z,6.77
2022-11-16T06:03:07.132Z,6.80
2022-11-16T06:05:40.299Z,6.81
2022-11-16T06:08:09.221Z,6.80
2022-11-16T06:10:38.224Z,6.74
2022-11-16T06:13:08.051Z,6.70
2022-11-16T06:15:38.770Z,6.74
2022-11-16T06:18:07.950Z,6.69
2022-11-16T06:20:36.955Z,6.76
2022-11-16T06:23:05.312Z,6.75
2022-11-16T06:25:34.185Z,6.75
2022-11-16T06:28:07.463Z,6.76
2022-11-16T06:30:38.793Z,6.75
2022-11-16T06:33:07.907Z,6.77
2022-11-16T06:35:36.592Z,6.79
2022-11-16T06:38:05.138Z,6.81
2022-11-16T06:40:34.209Z,6.74
2022-11-16T06:43:02.793Z,6.72
2022-11-16T06:45:31.252Z,6.74
2022-11-16T06:48:01.041Z,6.73
2022-11-16T06:50:29.424Z,6.75
2022-11-16T06:53:00.954Z,6.75
2022-11-16T06:55:29.369Z,6.71
2022-11-16T06:57:58.144Z,6.71
2022-11-16T07:00:26.626Z,6.76
2022-11-16T07:02:56.030Z,6.78
2022-11-16T07:05:26.005Z,6.75
2022-11-16T07:07:56.314Z,6.69
2022-11-16T07:10:25.990Z,6.68
2022-11-16T07:12:54.422Z,6.70
2022-11-16T07:15:22.979Z,6.74
2022-11-16T07:17:51.388Z,6.74
2022-11-16T07:20:21.162Z,6.79
2022-11-16T07:22:51.061Z,6.81
2022-11-16T07:25:19.506Z,6.85
2022-11-16T07:27:47.836Z,6.83
2022-11-16T07:30:16.569Z,6.86
2022-11-16T07:32:44.986Z,6.85
2022-11-16T07:35:13.508Z,6.91
2022-11-16T07:37:41.894Z,6.91
2022-11-16T07:40:12.609Z,6.83
2022-11-16T07:42:42.252Z,6.92
2022-11-16T07:45:12.277Z,6.94
2022-11-16T07:47:40.791Z,6.96
2022-11-16T07:50:11.067Z,6.96
2022-11-16T07:52:39.643Z,7.00
2022-11-16T07:55:08.375Z,7.02
2022-11-16T07:57:38.189Z,7.02
2022-11-16T08:00:07.524Z,7.03
2022-11-16T08:02:36.453Z,7.04
2022-11-16T08:05:05.185Z,7.04
2022-11-16T08:07:35.467Z,7.00
2022-11-16T08:10:03.963Z,6.99
2022-11-16T08:12:32.645Z,7.05
2022-11-16T08:15:02.431Z,7.06
2022-11-16T08:17:30.823Z,7.05
2022-11-16T08:19:59.177Z,7.23
2022-11-16T08:22:27.652Z,7.20
2022-11-16T08:24:56.078Z,7.24
2022-11-16T08:27:24.585Z,7.10
2022-11-16T08:29:53.094Z,7.21
2022-11-16T08:32:22.833Z,7.21
2022-11-16T08:34:51.842Z,7.20
2022-11-16T08:37:20.551Z,7.22
2022-11-16T08:39:49.002Z,7.22
2022-11-16T08:42:17.377Z,7.25
2022-11-16T08:44:45.757Z,7.23
2022-11-16T08:47:14.229Z,7.23
2022-11-16T08:49:49.251Z,7.21
2022-11-16T08:52:18.086Z,7.22
2022-11-16T08:54:46.495Z,7.21
2022-11-16T08:57:14.922Z,7.23
2022-11-16T08:59:43.274Z,7.22
2022-11-16T09:02:12.087Z,7.22
2022-11-16T09:04:40.442Z,7.23
2022-11-16T09:07:11.731Z,7.25
2022-11-16T09:09:40.144Z,7.24
2022-11-16T09:12:08.723Z,7.27
2022-11-16T09:14:37.203Z,7.24
2022-11-16T09:17:05.639Z,7.13
2022-11-16T09:19:34.194Z,7.24
2022-11-16T09:22:02.763Z,7.23
2022-11-16T09:24:32.736Z,7.14
2022-11-16T09:27:01.889Z,7.19
2022-11-16T09:29:31.214Z,7.16
2022-11-16T09:31:59.927Z,7.08
2022-11-16T09:34:28.560Z,7.16
2022-11-16T09:36:57.032Z,7.18
2022-11-16T09:39:30.963Z,7.19
2022-11-16T09:42:27.951Z,7.20
2022-11-16T09:45:06.534Z,7.18
2022-11-16T09:47:49.289Z,7.20
2022-11-16T09:50:41.355Z,7.19
2022-11-16T09:53:22.096Z,7.20
2022-11-16T09:55:53.423Z,7.20
2022-11-16T09:58:28.393Z,7.21
2022-11-16T10:01:02.469Z,7.22
2022-11-16T10:03:37.404Z,7.18
2022-11-16T10:06:09.584Z,7.19
2022-11-16T10:08:44.856Z,7.14
2022-11-16T10:11:33.638Z,7.14
2022-11-16T10:14:17.604Z,7.14
2022-11-16T10:16:55.084Z,7.09
2022-11-16T10:19:37.497Z,7.09
2022-11-16T10:22:18.921Z,7.05
2022-11-16T10:24:57.883Z,6.96
2022-11-16T10:27:42.925Z,6.99
2022-11-16T10:30:16.273Z,6.97
2022-11-16T10:32:53.138Z,6.98
2022-11-16T10:35:28.661Z,6.94
2022-11-16T10:37:59.684Z,6.94
2022-11-16T10:40:30.760Z,6.97
2022-11-16T10:43:06.891Z,6.99
2022-11-16T10:45:41.393Z,7.00
2022-11-16T10:48:37.258Z,6.99
2022-11-16T10:51:06.868Z,6.90
2022-11-16T10:53:37.689Z,6.98
2022-11-16T10:56:17.689Z,6.95
2022-11-16T10:59:00.374Z,6.94
2022-11-16T11:01:36.270Z,6.89
2022-11-16T11:04:29.012Z,6.91
2022-11-16T11:06:59.052Z,6.91
2022-11-16T11:09:30.760Z,6.95
2022-11-16T11:12:32.560Z,6.97
2022-11-16T11:15:04.197Z,6.96
2022-11-16T11:17:35.680Z,6.97
2022-11-16T11:20:06.927Z,6.99
2022-11-16T11:22:44.040Z,7.01
2022-11-16T11:25:21.649Z,7.02
2022-11-16T11:27:51.089Z,7.10
2022-11-16T11:30:21.755Z,7.06
2022-11-16T11:32:53.132Z,7.02
2022-11-16T11:35:26.555Z,7.02
2022-11-16T11:37:58.048Z,7.01
2022-11-16T11:40:28.007Z,6.97
2022-11-16T11:42:59.361Z,7.02
2022-11-16T11:45:35.200Z,7.04
2022-11-16T11:48:16.304Z,7.02
2022-11-16T11:50:49.522Z,7.02
2022-11-16T11:53:29.131Z,6.98
2022-11-16T11:56:00.543Z,6.99
2022-11-16T11:58:33.173Z,6.96
2022-11-16T12:01:25.699Z,6.94
2022-11-16T12:04:33.015Z,6.92
2022-11-16T12:07:10.823Z,6.98
2022-11-16T12:09:48.456Z,6.95
2022-11-16T12:12:30.885Z,6.93
2022-11-16T12:15:11.904Z,6.91
2022-11-16T12:17:51.174Z,6.92
2022-11-16T12:20:40.252Z,6.86
2022-11-16T12:23:39.492Z,6.88
2022-11-16T12:26:15.969Z,6.86
2022-11-16T12:28:56.823Z,6.87
2022-11-16T12:31:49.657Z,6.90
2022-11-16T12:34:26.929Z,6.87
2022-11-16T12:37:05.154Z,6.84
2022-11-16T12:39:36.848Z,6.79
2022-11-16T12:42:23.597Z,6.82
2022-11-16T12:45:13.541Z,6.85
2022-11-16T12:47:58.472Z,6.88
2022-11-16T12:50:45.379Z,6.87
2022-11-16T12:53:40.091Z,6.86
2022-11-16T12:56:21.282Z,6.86
2022-11-16T12:59:07.224Z,6.86
2022-11-16T13:01:42.560Z,6.87
2022-11-16T13:04:16.423Z,6.83
2022-11-16T13:06:51.459Z,6.85
2022-11-16T13:09:25.681Z,6.85
2022-11-16T13:11:57.642Z,6.85
2022-11-16T13:14:30.242Z,6.87
2022-11-16T13:17:02.163Z,6.90
2022-11-16T13:19:31.075Z,6.89
2022-11-16T13:22:06.618Z,6.86
2022-11-16T13:24:49.261Z,6.86
2022-11-16T13:27:33.893Z,6.81
2022-11-16T13:30:07.527Z,6.86
2022-11-16T13:32:50.751Z,6.83
2022-11-16T13:35:21.155Z,6.82
2022-11-16T13:37:50.673Z,6.81
2022-11-16T13:40:28.559Z,6.81
2022-11-16T13:43:15.597Z,6.79
2022-11-16T13:45:53.090Z,6.81
2022-11-16T13:48:24.104Z,6.82
2022-11-16T13:50:55.702Z,6.83
2022-11-16T13:56:20.168Z,6.78
2022-11-16T13:58:55.208Z,6.87
2022-11-16T14:01:24.083Z,6.87
2022-11-16T14:04:10.440Z,6.84
2022-11-16T14:07:00.018Z,6.88
2022-11-16T14:09:49.393Z,6.92
2022-11-16T14:12:59.887Z,6.94
2022-11-16T14:15:37.227Z,6.95
2022-11-16T14:18:35.498Z,6.96
2022-11-16T14:21:13.201Z,6.93
2022-11-16T14:24:12.014Z,6.89
2022-11-16T14:26:51.759Z,6.96
2022-11-16T14:29:51.194Z,6.96
2022-11-16T14:32:23.937Z,6.97
2022-11-16T14:34:55.644Z,7.00
2022-11-16T14:37:33.988Z,6.99
2022-11-16T14:40:06.551Z,7.01
2022-11-16T14:43:09.351Z,7.04
2022-11-16T14:45:36.149Z,7.04
2022-11-16T14:48:15.275Z,7.04
2022-11-16T14:50:45.640Z,7.05
2022-11-16T14:53:18.015Z,7.01
2022-11-16T14:55:47.040Z,6.99
2022-11-16T14:58:20.403Z,6.96
2022-11-16T15:00:55.388Z,6.95
2022-11-16T15:03:27.024Z,6.93
2022-11-16T15:05:59.440Z,6.86
2022-11-16T15:08:34.049Z,6.94
2022-11-16T15:11:02.906Z,6.93
2022-11-16T15:13:31.674Z,6.94
2022-11-16T15:16:10.002Z,6.92
2022-11-16T15:18:39.961Z,6.93
2022-11-16T15:21:22.842Z,6.93
2022-11-16T15:24:15.435Z,6.95
2022-11-16T15:26:40.237Z,6.96
2022-11-16T15:29:16.620Z,6.96
2022-11-16T15:31:45.274Z,6.99
2022-11-16T15:34:18.025Z,6.96
2022-11-16T15:36:46.703Z,6.96
2022-11-16T15:39:20.011Z,6.95
2022-11-16T15:41:48.827Z,6.92
2022-11-16T15:44:20.223Z,6.85
2022-11-16T15:46:51.715Z,6.91
2022-11-16T15:49:29.329Z,6.79
2022-11-16T15:51:59.639Z,6.86
2022-11-16T15:54:30.094Z,6.87
2022-11-16T15:57:08.190Z,6.86
2022-11-16T15:59:38.716Z,6.90
2022-11-16T16:02:07.188Z,6.91
2022-11-16T16:04:43.665Z,6.93
2022-11-16T16:07:12.858Z,7.02
2022-11-16T16:09:42.359Z,7.07
2022-11-16T16:12:19.002Z,7.01
2022-11-16T16:14:48.749Z,6.95
2022-11-16T16:17:24.783Z,6.91
2022-11-16T16:19:58.213Z,6.90
2022-11-16T16:22:30.651Z,6.88
2022-11-16T16:24:59.133Z,6.90
2022-11-16T16:27:28.916Z,6.90
2022-11-16T16:29:58.648Z,6.88
2022-11-16T16:32:29.221Z,6.89
2022-11-16T16:35:00.788Z,6.92
2022-11-16T16:37:30.383Z,6.85
2022-11-16T16:39:59.062Z,6.78
2022-11-16T16:42:28.292Z,6.75
2022-11-16T16:44:56.726Z,6.71
2022-11-16T16:47:25.724Z,6.71
2022-11-16T16:49:54.156Z,6.67
2022-11-16T16:52:23.943Z,6.67
2022-11-16T16:54:52.302Z,6.67
2022-11-16T16:57:20.639Z,6.60
2022-11-16T16:59:49.460Z,6.61
2022-11-16T17:02:18.151Z,6.65
2022-11-16T17:04:48.612Z,6.61
2022-11-16T17:07:17.520Z,6.62
2022-11-16T17:09:47.369Z,6.63
2022-11-16T17:12:15.806Z,6.62
2022-11-16T17:14:51.413Z,6.63
2022-11-16T17:17:20.132Z,6.61
2022-11-16T17:19:48.848Z,6.59
2022-11-16T17:22:17.572Z,6.55
2022-11-16T17:24:47.404Z,6.57
2022-11-16T17:27:16.024Z,6.55
2022-11-16T17:29:44.363Z,6.54
2022-11-16T17:32:12.793Z,6.55
2022-11-16T17:34:41.688Z,6.55
2022-11-16T17:37:10.313Z,6.48
2022-11-16T17:39:38.727Z,6.48
2022-11-16T17:42:08.586Z,6.48
2022-11-16T17:44:36.923Z,6.49
2022-11-16T17:47:05.350Z,6.48
2022-11-16T17:49:34.291Z,6.44
2022-11-16T17:52:02.694Z,6.40
2022-11-16T17:54:31.053Z,6.39
2022-11-16T17:56:59.432Z,6.36
2022-11-16T17:59:30.053Z,6.35
2022-11-16T18:01:59.058Z,6.36
2022-11-16T18:04:27.447Z,6.34
2022-11-16T18:06:56.348Z,6.29
2022-11-16T18:09:24.913Z,6.22
2022-11-16T18:11:53.311Z,6.26
2022-11-16T18:14:21.935Z,6.22
2022-11-16T18:16:51.809Z,6.17
2022-11-16T18:19:21.217Z,6.21
2022-11-16T18:21:49.742Z,6.28
2022-11-16T18:24:18.127Z,6.31
2022-11-16T18:26:46.469Z,6.33
2022-11-16T18:29:16.231Z,6.33
2022-11-16T18:31:44.703Z,6.35
2022-11-16T18:34:15.639Z,6.34
2022-11-16T18:36:44.013Z,6.33
2022-11-16T18:39:12.563Z,6.28
2022-11-16T18:41:48.756Z,6.25
2022-11-16T18:44:21.713Z,6.22
2022-11-16T18:46:50.749Z,6.08
2022-11-16T18:49:20.561Z,6.08
2022-11-16T18:51:48.978Z,6.10
2022-11-16T18:54:17.370Z,6.10
2022-11-16T18:56:45.828Z,6.07
2022-11-16T18:59:14.214Z,6.08
2022-11-16T19:01:42.613Z,6.02
2022-11-16T19:04:12.504Z,6.07
2022-11-16T19:06:42.426Z,6.04
2022-11-16T19:09:11.633Z,6.10
2022-11-16T19:11:40.168Z,6.12
2022-11-16T19:14:08.874Z,6.12
2022-11-16T19:16:39.657Z,6.11
2022-11-16T19:19:10.929Z,6.06
2022-11-16T19:21:40.394Z,6.09
2022-11-16T19:24:10.532Z,6.09
2022-11-16T19:26:39.027Z,6.05
2022-11-16T19:29:08.091Z,5.97
2022-11-16T19:31:37.011Z,5.97
2022-11-16T19:34:07.377Z,5.92
2022-11-16T19:36:37.670Z,5.87
2022-11-16T19:39:07.142Z,5.87
2022-11-16T19:41:39.399Z,5.88
2022-11-16T19:44:08.055Z,5.86
2022-11-16T19:46:36.800Z,5.81
2022-11-16T19:49:05.630Z,5.83
2022-11-16T19:51:35.060Z,5.84
2022-11-16T19:54:04.199Z,5.83
2022-11-16T19:56:32.980Z,5.84
2022-11-16T19:59:03.009Z,5.88
2022-11-16T20:01:32.119Z,5.87
2022-11-16T20:04:02.453Z,5.88
2022-11-16T20:06:33.185Z,5.90
2022-11-16T20:09:08.930Z,5.91
2022-11-16T20:11:39.410Z,5.93
2022-11-16T20:14:11.802Z,5.94
2022-11-16T20:16:43.021Z,5.95
2022-11-16T20:19:11.779Z,5.93
2022-11-16T20:21:42.356Z,5.92
2022-11-16T20:24:13.912Z,5.93
2022-11-16T20:26:44.854Z,5.93
2022-11-16T20:29:15.893Z,5.88
2022-11-16T20:31:45.667Z,5.84
2022-11-16T20:34:15.386Z,5.81
2022-11-16T20:36:45.393Z,5.73
2022-11-16T20:39:15.436Z,5.77
2022-11-16T20:41:44.283Z,5.79
2022-11-16T20:44:18.517Z,5.75
2022-11-16T20:46:47.072Z,5.73
2022-11-16T20:49:15.605Z,5.71
2022-11-16T20:51:43.937Z,5.62
2022-11-16T20:54:12.371Z,5.60
2022-11-16T20:56:41.052Z,5.55
2022-11-16T20:59:09.395Z,5.59
2022-11-16T21:01:42.259Z,5.71
2022-11-16T21:04:11.376Z,5.65
2022-11-16T21:06:39.782Z,5.64
2022-11-16T21:09:08.512Z,5.66
2022-11-16T21:11:57.624Z,5.64
2022-11-16T21:14:25.196Z,5.66
2022-11-16T21:16:55.278Z,5.67
2022-11-16T21:19:23.671Z,5.61
2022-11-16T21:21:52.637Z,5.56
2022-11-16T21:24:22.028Z,5.60
2022-11-16T21:26:51.160Z,5.63
2022-11-16T21:29:22.503Z,5.55
2022-11-16T21:31:53.540Z,5.52
2022-11-16T21:34:24.978Z,5.55
2022-11-16T21:36:53.372Z,5.47
2022-11-16T21:39:21.766Z,5.51
2022-11-16T21:41:50.197Z,5.53
2022-11-16T21:44:18.540Z,5.52
2022-11-16T21:46:47.204Z,5.44
2022-11-16T21:49:16.077Z,5.54
2022-11-16T21:51:46.171Z,5.53
2022-11-16T21:54:14.981Z,5.57
2022-11-16T21:56:43.479Z,5.66
2022-11-16T21:59:12.763Z,5.58
2022-11-16T22:01:54.854Z,5.56
2022-11-16T22:04:40.620Z,5.59
2022-11-16T22:07:33.010Z,5.56
2022-11-16T22:10:02.753Z,5.60
2022-11-16T22:15:18.452Z,5.57
2022-11-16T22:17:47.948Z,5.56
2022-11-16T22:20:16.760Z,5.52
2022-11-16T22:22:47.557Z,5.47
2022-11-16T22:25:17.291Z,5.40
2022-11-16T22:28:19.122Z,5.38
2022-11-16T22:30:39.236Z,5.43
2022-11-16T22:33:07.786Z,5.42
2022-11-16T22:35:38.080Z,5.35
2022-11-16T22:38:08.080Z,5.29
2022-11-16T22:40:36.698Z,5.30
2022-11-16T22:43:05.245Z,5.31
2022-11-16T22:45:33.869Z,5.21
2022-11-16T22:48:02.473Z,5.22
2022-11-16T22:50:31.015Z,5.21
2022-11-16T22:53:00.210Z,5.18
2022-11-16T22:55:31.112Z,5.09
2022-11-16T22:57:59.754Z,5.19
2022-11-16T23:00:29.976Z,5.18
2022-11-16T23:02:58.680Z,5.19
2022-11-16T23:05:27.320Z,5.15
2022-11-16T23:07:58.238Z,5.12
2022-11-16T23:10:26.789Z,5.16
2022-11-16T23:13:10.650Z,5.15
2022-11-16T23:15:51.298Z,5.18
2022-11-16T23:18:21.128Z,5.13
2022-11-16T23:21:09.145Z,5.17
2022-11-16T23:23:54.819Z,5.21
2022-11-16T23:26:38.760Z,5.42
2022-11-16T23:29:11.297Z,5.47
2022-11-16T23:31:40.042Z,5.43
2022-11-16T23:34:08.622Z,5.43
2022-11-16T23:36:37.186Z,5.42
2022-11-16T23:39:05.841Z,5.43
2022-11-16T23:41:51.583Z,5.39
2022-11-16T23:44:21.627Z,5.41
2022-11-16T23:46:50.283Z,5.37
2022-11-16T23:49:18.857Z,5.39
2022-11-16T23:51:47.443Z,5.40
2022-11-16T23:54:16.008Z,5.64
2022-11-16T23:56:44.597Z,5.56
2022-11-16T23:59:13.224Z,5.53
